Latest Weather Observations for Bridgetown

IDW60801

Issued at 6:32 pm WST Monday 30 March 2015 (issued every 30 minutes, with the page automatically refreshed every 10 minutes)

About weather observations | Map of weather stations | Latest weather observations for WA | Other Formats
Station Details ID: 009617 Name: BRIDGETOWN Lat: -33.95 Lon: 116.13 Height: 178.66 m
Data from the previous 72 hours. | See also: Recent months at Bridgetown
Date/Time
WST
Temp
°C
App
Temp
°C
Dew
Point
Rel
Hum
%
Delta-T
°C
Wind Press
QNH
hPa
Press
MSL
hPa
Rain
since 9 am
mm
Dir
 
Spd
km/h
Gust
km/h
Spd
kts
Gust
kts
30/06:30pm 20.7 21.5 15.9 74 2.9 S 6 11 3 6 1016.4 1015.8 0.0
30/06:00pm 21.6 22.2 15.7 69 3.6 SSW 7 13 4 7 1016.4 1015.8 0.0
30/05:30pm 22.4 22.6 15.7 66 4.1 S 9 17 5 9 1015.7 1015.1 0.0
30/05:00pm 23.4 23.6 15.7 62 4.7 SSW 9 17 5 9 1015.3 1014.7 0.0
30/04:30pm 25.4 25.5 15.4 54 6.1 SW 9 17 5 9 1014.9 1014.3 0.0
30/04:00pm 26.4 25.7 12.1 41 8.3 W 7 13 4 7 1014.5 1014.0 0.0
30/03:30pm 26.4 25.1 11.3 39 8.6 W 9 15 5 8 1014.5 1014.0 0.0
30/03:00pm 27.4 26.5 11.4 37 9.2 W 7 15 4 8 1014.3 1013.8 0.0
30/02:30pm 27.8 26.7 10.5 34 9.8 W 7 15 4 8 1014.4 1013.9 0.0
30/02:00pm 28.2 27.0 10.4 33 10.1 WNW 7 17 4 9 1014.3 1013.8 0.0
30/01:30pm 27.8 27.2 12.2 38 9.1 W 7 15 4 8 1014.4 1013.9 0.0
30/01:00pm 28.1 28.1 13.6 41 8.7 S 6 13 3 7 1014.8 1014.2 0.0
30/12:30pm 27.0 25.2 10.7 36 9.3 NNW 11 19 6 10 1015.2 1014.6 0.0
30/12:00pm 26.5 25.6 11.4 39 8.7 W 7 13 4 7 1015.4 1014.8 0.0
30/11:30am 25.3 24.2 11.8 43 7.7 NW 9 15 5 8 1015.8 1015.2 0.0
30/11:00am 24.5 24.0 12.8 48 6.8 NNW 7 13 4 7 1016.3 1015.7 0.0
30/10:30am 22.1 23.4 14.2 61 4.7 CALM 0 0 0 0 1016.5 1015.9 0.0
30/10:00am 21.3 22.7 14.5 65 4.0 CALM 0 0 0 0 1016.6 1016.0 0.0
30/09:30am 18.4 19.6 16.0 86 1.4 ESE 4 6 2 3 1016.9 1016.4 0.0
30/09:00am 15.5 17.2 15.3 99 0.1 CALM 0 2 0 1 1017.2 1016.7 0.0
30/08:30am 13.4 14.1 13.4 100 0.0 E 2 4 1 2 1017.3 1016.8 0.0
30/08:00am 12.4 13.2 12.4 100 0.0 CALM 0 0 0 0 1017.0 1016.5 0.0
30/07:30am 11.9 12.5 11.9 100 0.0 CALM 0 0 0 0 1017.1 1016.6 0.0
30/07:00am 11.6 12.1 11.6 100 0.0 CALM 0 0 0 0 1017.1 1016.6 0.0
30/06:30am 11.5 12.0 11.5 100 0.0 CALM 0 0 0 0 1017.1 1016.6 0.0
30/06:00am 11.5 12.0 11.5 100 0.0 CALM 0 0 0 0 1017.1 1016.6 0.0
30/05:30am 11.4 11.8 11.4 100 0.0 CALM 0 0 0 0 1017.0 1016.5 0.0
30/05:00am 10.9 11.2 10.9 100 0.0 CALM 0 0 0 0 1017.1 1016.6 0.0
30/04:30am 11.0 11.3 11.0 100 0.0 CALM 0 0 0 0 1017.0 1016.5 0.0
30/04:00am 10.8 11.1 10.8 100 0.0 CALM 0 0 0 0 1016.9 1016.4 0.0
30/03:30am 11.2 11.6 11.2 100 0.0 CALM 0 0 0 0 1017.1 1016.6 0.0
30/03:00am 11.1 11.5 11.1 100 0.0 CALM 0 0 0 0 1017.0 1016.5 0.0
30/02:30am 11.7 12.2 11.7 100 0.0 CALM 0 2 0 1 1017.0 1016.5 0.0
30/02:00am 11.9 12.5 11.9 100 0.0 CALM 0 0 0 0 1017.5 1017.0 0.0
30/01:30am 12.7 13.5 12.7 100 0.0 CALM 0 0 0 0 1017.6 1017.1 0.0
30/01:00am 13.0 13.9 12.8 99 0.1 CALM 0 0 0 0 1017.8 1017.3 0.0
30/12:30am 13.9 15.1 13.7 99 0.1 CALM 0 0 0 0 1017.9 1017.4 0.0
30/12:00am 14.6 16.0 14.4 99 0.1 CALM 0 0 0 0 1018.2 1017.7 0.0
 
Date/Time
WST
Temp
°C
App
Temp
°C
Dew
Point
Rel
Hum
%
Delta-T
°C
Wind Press
QNH
hPa
Press
MSL
hPa
Rain
since 9 am
mm
Dir
 
Spd
km/h
Gust
km/h
Spd
kts
Gust
kts
29/11:30pm 15.6 17.3 15.3 98 0.2 CALM 0 4 0 2 1018.3 1017.8 0.0
29/11:00pm 16.7 18.1 16.4 98 0.2 S 4 7 2 4 1018.7 1018.2 0.0
29/10:30pm 17.2 19.2 16.9 98 0.2 S 2 6 1 3 1019.0 1018.5 0.0
29/10:00pm 17.9 18.8 16.6 92 0.8 S 7 11 4 6 1019.2 1018.7 0.0
29/09:30pm 18.7 19.2 16.5 87 1.3 S 9 15 5 8 1019.3 1018.8 0.0
29/09:00pm 19.1 20.3 15.8 81 2.0 SSE 4 6 2 3 1019.4 1018.9 0.0
29/08:30pm 19.9 20.4 15.5 76 2.6 SSE 7 9 4 5 1019.5 1019.0 0.0
29/08:00pm 18.8 19.2 11.4 62 4.1 CALM 0 0 0 0 1019.2 1018.7 0.0
29/07:30pm 21.2 21.1 10.7 51 5.8 SW 2 7 1 4 1018.8 1018.3 0.0
29/07:00pm 22.6 22.4 9.0 42 7.3 CALM 0 2 0 1 1018.5 1018.0 0.0
29/06:30pm 24.1 23.1 8.9 38 8.2 WNW 4 7 2 4 1018.2 1017.7 0.0
29/06:00pm 25.5 24.1 8.9 35 9.1 W 6 13 3 7 1017.8 1017.3 0.0
29/05:30pm 26.8 25.4 8.7 32 9.9 NW 6 9 3 5 1017.6 1017.1 0.0
29/05:00pm 27.9 26.5 8.7 30 10.6 WNW 6 13 3 7 1017.5 1017.0 0.0
29/04:30pm 27.9 27.1 8.2 29 10.8 N 2 7 1 4 1017.5 1017.0 0.0
29/04:00pm 28.4 26.8 8.1 28 11.1 NW 6 13 3 7 1017.6 1017.1 0.0
29/03:30pm 28.3 26.5 8.1 28 11.1 WNW 7 15 4 8 1017.7 1017.2 0.0
29/03:00pm 28.6 27.1 8.3 28 11.1 NW 6 11 3 6 1017.8 1017.3 0.0
29/02:30pm 28.0 26.5 9.3 31 10.4 N 7 13 4 7 1018.0 1017.5 0.0
29/02:00pm 28.0 26.5 8.3 29 10.8 WNW 6 15 3 8 1018.3 1017.8 0.0
29/01:30pm 27.1 25.3 8.0 30 10.4 NNW 7 32 4 17 1018.7 1018.2 0.0
29/01:00pm 26.8 25.2 8.7 32 9.9 NW 7 20 4 11 1019.2 1018.7 0.0
29/12:30pm 26.1 24.6 9.0 34 9.4 NW 7 17 4 9 1019.6 1019.1 0.0
29/12:00pm 25.6 24.2 9.4 36 8.9 NNW 7 15 4 8 1020.1 1019.6 0.0
29/11:30am 24.9 24.3 10.4 40 8.1 ESE 4 9 2 5 1020.7 1020.1 0.0
29/11:00am 23.7 22.8 11.4 46 6.9 NE 7 13 4 7 1021.2 1020.6 0.0
29/10:30am 22.9 22.0 11.3 48 6.5 ENE 7 13 4 7 1021.6 1021.0 0.0
29/10:00am 21.5 20.3 11.5 53 5.6 NE 9 13 5 7 1022.0 1021.5 0.0
29/09:30am 20.8 20.1 12.0 57 5.0 ENE 7 15 4 8 1022.2 1021.7 0.0
29/09:00am 19.3 19.1 13.5 69 3.3 ENE 7 13 4 7 1022.3 1021.8 0.0
29/08:30am 17.9 17.6 14.4 80 2.0 E 9 20 5 11 1022.5 1022.0 0.0
29/08:00am 16.3 17.4 15.5 95 0.5 SSE 4 6 2 3 1022.4 1021.9 0.0
29/07:30am 13.0 13.9 12.8 99 0.1 CALM 0 0 0 0 1022.4 1021.9 0.0
29/07:00am 11.4 11.8 11.4 100 0.0 CALM 0 0 0 0 1022.2 1021.7 0.0
29/06:30am 11.1 11.5 11.1 100 0.0 CALM 0 0 0 0 1022.2 1021.7 0.0
29/06:00am 11.8 12.4 11.8 100 0.0 CALM 0 0 0 0 1022.1 1021.6 0.0
29/05:30am 12.3 13.0 12.1 99 0.1 CALM 0 0 0 0 1022.0 1021.5 0.0
29/05:00am 13.2 14.1 13.0 99 0.1 CALM 0 0 0 0 1021.8 1021.3 0.0
29/04:30am 14.6 16.0 14.4 99 0.1 CALM 0 0 0 0 1021.6 1021.0 0.0
29/04:00am 15.7 16.7 15.4 98 0.2 SSE 4 6 2 3 1021.3 1020.7 0.0
29/03:30am 16.3 17.5 16.0 98 0.2 ENE 4 7 2 4 1021.4 1020.8 0.0
29/03:00am 16.1 17.3 15.8 98 0.2 NE 4 6 2 3 1021.4 1020.8 0.0
29/02:30am 16.1 17.3 15.8 98 0.2 E 4 6 2 3 1021.5 1020.9 0.0
29/02:00am 16.5 18.2 16.2 98 0.2 ESE 2 7 1 4 1021.5 1020.9 0.0
29/01:30am 16.6 18.4 16.4 99 0.1 SSE 2 4 1 2 1021.7 1021.2 0.0
29/01:00am 16.5 17.3 16.3 99 0.1 SSE 7 13 4 7 1021.8 1021.3 0.0
29/12:30am 16.4 18.1 16.2 99 0.1 SE 2 4 1 2 1021.8 1021.3 0.0
29/12:00am 16.1 16.9 15.9 99 0.1 ESE 6 9 3 5 1021.7 1021.2 0.0
 
Date/Time
WST
Temp
°C
App
Temp
°C
Dew
Point
Rel
Hum
%
Delta-T
°C
Wind Press
QNH
hPa
Press
MSL
hPa
Rain
since 9 am
mm
Dir
 
Spd
km/h
Gust
km/h
Spd
kts
Gust
kts
28/11:30pm 15.8 16.3 15.6 99 0.1 SSE 7 17 4 9 1021.7 1021.2 0.0
28/11:00pm 15.3 15.6 15.1 99 0.1 S 7 13 4 7 1021.7 1021.2 0.0
28/10:30pm 13.7 14.8 13.4 98 0.2 CALM 0 0 0 0 1021.7 1021.2 0.0
28/10:00pm 14.7 16.1 14.4 98 0.2 CALM 0 0 0 0 1021.8 1021.3 0.0
28/09:30pm 15.5 16.3 13.7 89 1.0 SSE 2 7 1 4 1021.8 1021.3 0.0
28/09:00pm 16.2 16.9 13.5 84 1.5 SE 2 4 1 2 1021.7 1021.2 0.0
28/08:30pm 17.7 17.7 13.6 77 2.3 S 6 11 3 6 1021.5 1020.9 0.0
28/08:00pm 18.1 18.0 13.2 73 2.8 S 6 11 3 6 1021.3 1020.7 0.0
28/07:30pm 18.8 18.5 12.8 68 3.4 S 6 7 3 4 1020.9 1020.3 0.0
28/07:00pm 19.4 18.9 12.2 63 4.0 S 6 13 3 7 1020.5 1020.0 0.0
28/06:30pm 20.2 19.4 11.7 58 4.8 S 7 13 4 7 1020.1 1019.6 0.0
28/06:00pm 21.1 19.5 11.7 55 5.3 S 11 17 6 9 1019.8 1019.3 0.0
28/05:30pm 22.6 21.6 11.0 48 6.5 SW 7 13 4 7 1019.6 1019.1 0.0
28/05:00pm 23.9 22.7 10.2 42 7.6 S 7 13 4 7 1019.4 1018.9 0.0
28/04:30pm 24.1 22.7 8.9 38 8.2 SSE 6 9 3 5 1019.2 1018.7 0.0
28/04:00pm 24.1 22.3 8.1 36 8.5 SSW 7 15 4 8 1019.2 1018.7 0.0
28/03:30pm 24.4 22.8 8.8 37 8.5 SW 7 15 4 8 1019.3 1018.8 0.0
28/03:00pm 25.1 23.7 9.0 36 8.8 WSW 6 11 3 6 1019.3 1018.8 0.0
28/02:30pm 24.6 22.8 9.3 38 8.4 S 9 17 5 9 1019.4 1018.9 0.0
28/02:00pm 24.6 22.9 8.5 36 8.7 WSW 7 17 4 9 1019.5 1019.0 0.0
28/01:30pm 24.1 22.4 8.5 37 8.4 SSE 7 11 4 6 1019.8 1019.3 0.0
28/01:00pm 23.7 21.2 8.2 37 8.3 WSW 11 22 6 12 1020.1 1019.6 0.0
28/12:30pm 23.5 21.6 7.6 36 8.4 SW 7 15 4 8 1020.7 1020.1 0.0
28/12:00pm 23.1 21.8 9.8 43 7.3 WSW 7 15 4 8 1021.0 1020.4 0.0
28/11:30am 22.7 21.2 9.1 42 7.3 W 7 13 4 7 1021.4 1020.8 0.0
28/11:00am 22.1 20.9 10.3 47 6.5 SW 7 17 4 9 1021.4 1020.8 0.0
28/10:30am 21.4 19.9 9.0 45 6.6 SW 7 17 4 9 1021.6 1021.0 0.0
28/10:00am 20.4 18.7 9.9 51 5.7 SSE 9 17 5 9 1021.7 1021.2 0.0
28/09:30am 19.5 19.0 12.0 62 4.2 SSW 6 17 3 9 1021.8 1021.3 0.0
28/09:00am 18.7 19.4 14.6 77 2.4 ESE 4 9 2 5 1021.9 1021.4 0.0
28/08:30am 15.6 17.4 15.4 99 0.1 CALM 0 0 0 0 1021.9 1021.4 0.0
28/08:00am 13.3 14.3 13.3 100 0.0 CALM 0 0 0 0 1021.9 1021.4 0.0
28/07:30am 11.6 12.1 11.6 100 0.0 CALM 0 0 0 0 1021.8 1021.3 0.0
28/07:00am 11.1 11.5 11.1 100 0.0 CALM 0 0 0 0 1021.6 1021.0 0.0
28/06:30am 10.7 10.9 10.7 100 0.0 CALM 0 0 0 0 1021.4 1020.8 0.0
28/06:00am 11.0 11.3 11.0 100 0.0 CALM 0 0 0 0 1021.2 1020.6 0.0
28/05:30am 11.5 12.0 11.5 100 0.0 CALM 0 0 0 0 1021.0 1020.4 0.0
28/05:00am 11.8 12.4 11.8 100 0.0 CALM 0 0 0 0 1020.8 1020.2 0.0
28/04:30am 12.2 12.9 12.2 100 0.0 CALM 0 0 0 0 1020.5 1020.0 0.0
28/04:00am 12.0 12.6 12.0 100 0.0 CALM 0 0 0 0 1020.2 1019.7 0.0
28/03:30am 11.7 12.2 11.7 100 0.0 CALM 0 0 0 0 1020.1 1019.6 0.0
28/03:00am 11.3 11.7 11.3 100 0.0 CALM 0 0 0 0 1019.9 1019.4 0.0
28/02:30am 11.4 11.8 11.4 100 0.0 CALM 0 0 0 0 1020.0 1019.5 0.0
28/02:00am 11.6 12.1 11.6 100 0.0 CALM 0 0 0 0 1020.1 1019.6 0.0
28/01:30am 11.6 12.1 11.6 100 0.0 CALM 0 0 0 0 1020.3 1019.8 0.0
28/01:00am 12.3 13.0 12.3 100 0.0 CALM 0 0 0 0 1020.2 1019.7 0.0
28/12:30am 12.5 13.3 12.5 100 0.0 CALM 0 2 0 1 1020.3 1019.8 0.0
28/12:00am 12.9 13.8 12.9 100 0.0 CALM 0 0 0 0 1020.4 1019.9 0.0
 
Date/Time
WST
Temp
°C
App
Temp
°C
Dew
Point
Rel
Hum
%
Delta-T
°C
Wind Press
QNH
hPa
Press
MSL
hPa
Rain
since 9 am
mm
Dir
 
Spd
km/h
Gust
km/h
Spd
kts
Gust
kts
27/11:30pm 13.1 14.1 13.1 100 0.0 CALM 0 0 0 0 1020.5 1020.0 0.0
27/11:00pm 13.8 14.9 13.6 99 0.1 CALM 0 4 0 2 1020.5 1020.0 0.0
27/10:30pm 14.3 15.6 14.1 99 0.1 CALM 0 0 0 0 1020.7 1020.1 0.0
27/10:00pm 15.3 17.0 15.1 99 0.1 CALM 0 0 0 0 1020.7 1020.1 0.0
27/09:30pm 16.2 18.2 15.9 98 0.2 CALM 0 0 0 0 1021.0 1020.4 0.0
27/09:00pm 17.3 19.2 16.7 96 0.4 SW 2 4 1 2 1020.9 1020.3 0.0
27/08:30pm 18.3 20.4 17.1 93 0.7 SE 2 6 1 3 1020.9 1020.3 0.0
27/08:00pm 18.9 20.0 16.5 86 1.4 SSW 6 9 3 5 1020.7 1020.1 0.0
27/07:30pm 19.8 19.7 16.1 79 2.2 SSW 11 17 6 9 1020.0 1019.5 0.0
27/07:00pm 20.5 20.7 15.7 74 2.9 SSW 9 17 5 9 1019.8 1019.3 0.0

Other Formats:

Comma delimited format used in spreadsheet applications
http://www.bom.gov.au/fwo/IDW60801/IDW60801.95632.axf

JavaScript Object Notation format (JSON) in row-major order
http://www.bom.gov.au/fwo/IDW60801/IDW60801.95632.json